sensor_id;sensor_type;location;lat;lon;timestamp;pressure;altitude;pressure_sealevel;temperature;humidity
16451;BME280;12243;42.708;23.310;2023-04-01T00:02:13;94149.06;;;11.23;72.93
16451;BME280;12243;42.708;23.310;2023-04-01T00:04:40;94158.03;;;11.20;72.93
16451;BME280;12243;42.708;23.310;2023-04-01T00:07:07;94171.41;;;11.25;73.07
16451;BME280;12243;42.708;23.310;2023-04-01T00:09:35;94172.91;;;11.28;72.66
16451;BME280;12243;42.708;23.310;2023-04-01T00:12:02;94168.50;;;11.28;72.35
16451;BME280;12243;42.708;23.310;2023-04-01T00:14:29;94172.19;;;11.17;72.43
16451;BME280;12243;42.708;23.310;2023-04-01T00:16:56;94174.88;;;11.08;73.17
16451;BME280;12243;42.708;23.310;2023-04-01T00:19:23;94169.91;;;10.96;73.91
16451;BME280;12243;42.708;23.310;2023-04-01T00:21:50;94167.31;;;10.96;74.13
16451;BME280;12243;42.708;23.310;2023-04-01T00:24:17;94161.38;;;10.86;74.58
16451;BME280;12243;42.708;23.310;2023-04-01T00:26:46;94157.44;;;10.82;75.65
16451;BME280;12243;42.708;23.310;2023-04-01T00:29:13;94158.06;;;10.84;74.97
16451;BME280;12243;42.708;23.310;2023-04-01T00:31:40;94156.03;;;10.88;75.50
16451;BME280;12243;42.708;23.310;2023-04-01T00:34:07;94159.66;;;10.95;74.80
16451;BME280;12243;42.708;23.310;2023-04-01T00:36:34;94159.50;;;10.96;74.45
16451;BME280;12243;42.708;23.310;2023-04-01T00:39:01;94161.94;;;10.98;75.03
16451;BME280;12243;42.708;23.310;2023-04-01T00:41:28;94153.31;;;10.97;74.95
16451;BME280;12243;42.708;23.310;2023-04-01T00:44:18;94144.47;;;10.90;75.84
16451;BME280;12243;42.708;23.310;2023-04-01T00:46:46;94134.03;;;10.90;75.06
16451;BME280;12243;42.708;23.310;2023-04-01T00:49:14;94132.41;;;10.89;76.04
16451;BME280;12243;42.708;23.310;2023-04-01T00:51:43;94128.81;;;10.90;76.00
16451;BME280;12243;42.708;23.310;2023-04-01T00:54:12;94122.19;;;10.96;75.74
16451;BME280;12243;42.708;23.310;2023-04-01T00:56:42;94118.63;;;10.97;75.18
16451;BME280;12243;42.708;23.310;2023-04-01T00:59:18;94117.28;;;10.93;76.21
16451;BME280;12243;42.708;23.310;2023-04-01T01:01:46;94103.81;;;10.97;76.70
16451;BME280;12243;42.708;23.310;2023-04-01T01:04:21;94099.09;;;11.01;76.45
16451;BME280;12243;42.708;23.310;2023-04-01T01:06:58;94098.28;;;11.01;75.94
16451;BME280;12243;42.708;23.310;2023-04-01T01:09:35;94091.06;;;11.12;75.26
16451;BME280;12243;42.708;23.310;2023-04-01T01:12:10;94094.41;;;11.05;75.06
16451;BME280;12243;42.708;23.310;2023-04-01T01:14:55;94084.28;;;11.02;75.16
16451;BME280;12243;42.708;23.310;2023-04-01T01:17:36;94080.06;;;11.01;75.02
16451;BME280;12243;42.708;23.310;2023-04-01T01:23:21;94086.19;;;10.91;76.49
16451;BME280;12243;42.708;23.310;2023-04-01T01:25:58;94076.09;;;10.88;75.90
16451;BME280;12243;42.708;23.310;2023-04-01T01:28:39;94082.41;;;10.86;76.12
16451;BME280;12243;42.708;23.310;2023-04-01T01:35:11;94055.38;;;10.87;76.29
16451;BME280;12243;42.708;23.310;2023-04-01T01:37:43;94062.28;;;10.96;76.15
16451;BME280;12243;42.708;23.310;2023-04-01T01:40:12;94058.88;;;10.95;76.28
16451;BME280;12243;42.708;23.310;2023-04-01T01:42:45;94064.47;;;10.83;76.73
16451;BME280;12243;42.708;23.310;2023-04-01T01:45:14;94062.75;;;10.91;76.65
16451;BME280;12243;42.708;23.310;2023-04-01T01:47:45;94065.09;;;11.03;75.61
16451;BME280;12243;42.708;23.310;2023-04-01T01:50:15;94059.38;;;10.99;76.01
16451;BME280;12243;42.708;23.310;2023-04-01T01:52:42;94064.78;;;11.06;75.12
16451;BME280;12243;42.708;23.310;2023-04-01T01:55:26;94057.47;;;11.09;74.69
16451;BME280;12243;42.708;23.310;2023-04-01T01:57:55;94065.94;;;11.11;74.54
16451;BME280;12243;42.708;23.310;2023-04-01T02:00:25;94056.03;;;11.15;74.27
16451;BME280;12243;42.708;23.310;2023-04-01T02:02:53;94053.38;;;11.07;74.67
16451;BME280;12243;42.708;23.310;2023-04-01T02:05:24;94050.47;;;11.10;74.81
16451;BME280;12243;42.708;23.310;2023-04-01T02:08:02;94044.66;;;11.16;74.43
16451;BME280;12243;42.708;23.310;2023-04-01T02:10:36;94033.56;;;11.22;73.09
16451;BME280;12243;42.708;23.310;2023-04-01T02:13:11;94044.97;;;11.13;73.32
16451;BME280;12243;42.708;23.310;2023-04-01T02:15:45;94033.88;;;11.11;73.32
16451;BME280;12243;42.708;23.310;2023-04-01T02:18:15;94039.44;;;11.16;73.35
16451;BME280;12243;42.708;23.310;2023-04-01T02:20:44;94037.97;;;11.21;72.80
16451;BME280;12243;42.708;23.310;2023-04-01T02:23:12;94024.16;;;11.29;72.11
16451;BME280;12243;42.708;23.310;2023-04-01T02:25:41;94031.66;;;11.24;71.83
16451;BME280;12243;42.708;23.310;2023-04-01T02:28:10;94034.06;;;11.17;72.11
16451;BME280;12243;42.708;23.310;2023-04-01T02:30:43;94030.53;;;11.27;72.19
16451;BME280;12243;42.708;23.310;2023-04-01T02:33:12;94034.00;;;11.43;71.43
16451;BME280;12243;42.708;23.310;2023-04-01T02:35:39;94031.72;;;11.40;71.70
16451;BME280;12243;42.708;23.310;2023-04-01T02:38:08;94026.81;;;11.37;71.94
16451;BME280;12243;42.708;23.310;2023-04-01T02:40:43;94040.53;;;11.48;71.25
16451;BME280;12243;42.708;23.310;2023-04-01T02:43:11;94038.94;;;11.63;70.94
16451;BME280;12243;42.708;23.310;2023-04-01T02:45:38;94046.97;;;11.69;70.12
16451;BME280;12243;42.708;23.310;2023-04-01T02:48:05;94051.31;;;11.53;72.00
16451;BME280;12243;42.708;23.310;2023-04-01T02:50:32;94045.06;;;11.37;72.98
16451;BME280;12243;42.708;23.310;2023-04-01T02:53:00;94052.50;;;11.24;73.27
16451;BME280;12243;42.708;23.310;2023-04-01T02:55:29;94058.00;;;11.21;74.33
16451;BME280;12243;42.708;23.310;2023-04-01T02:57:56;94059.34;;;11.25;74.05
16451;BME280;12243;42.708;23.310;2023-04-01T03:00:24;94067.13;;;11.17;74.41
16451;BME280;12243;42.708;23.310;2023-04-01T03:02:51;94062.22;;;11.14;75.01
16451;BME280;12243;42.708;23.310;2023-04-01T03:05:18;94074.56;;;11.12;75.05
16451;BME280;12243;42.708;23.310;2023-04-01T03:07:45;94067.03;;;11.01;76.11
16451;BME280;12243;42.708;23.310;2023-04-01T03:10:13;94082.53;;;11.02;76.59
16451;BME280;12243;42.708;23.310;2023-04-01T03:12:41;94080.53;;;10.96;76.65
16451;BME280;12243;42.708;23.310;2023-04-01T03:15:10;94067.28;;;10.89;76.87
16451;BME280;12243;42.708;23.310;2023-04-01T03:17:39;94066.75;;;10.78;77.02
16451;BME280;12243;42.708;23.310;2023-04-01T03:20:07;94080.63;;;10.86;76.74
16451;BME280;12243;42.708;23.310;2023-04-01T03:22:36;94077.53;;;10.65;77.98
16451;BME280;12243;42.708;23.310;2023-04-01T03:25:04;94075.91;;;10.64;78.62
16451;BME280;12243;42.708;23.310;2023-04-01T03:27:33;94084.88;;;10.69;78.47
16451;BME280;12243;42.708;23.310;2023-04-01T03:30:03;94090.09;;;10.69;77.79
16451;BME280;12243;42.708;23.310;2023-04-01T03:32:34;94084.63;;;10.81;78.24
16451;BME280;12243;42.708;23.310;2023-04-01T03:35:01;94085.31;;;10.83;78.56
16451;BME280;12243;42.708;23.310;2023-04-01T03:37:28;94068.97;;;10.99;76.94
16451;BME280;12243;42.708;23.310;2023-04-01T03:39:55;94066.38;;;10.99;75.40
16451;BME280;12243;42.708;23.310;2023-04-01T03:42:22;94058.16;;;10.85;76.25
16451;BME280;12243;42.708;23.310;2023-04-01T03:44:49;94040.16;;;11.00;77.03
16451;BME280;12243;42.708;23.310;2023-04-01T03:47:17;94030.34;;;10.94;77.14
16451;BME280;12243;42.708;23.310;2023-04-01T03:49:44;94023.63;;;10.83;78.53
16451;BME280;12243;42.708;23.310;2023-04-01T03:52:11;94001.19;;;10.90;80.43
16451;BME280;12243;42.708;23.310;2023-04-01T03:54:39;94006.00;;;10.77;79.08
16451;BME280;12243;42.708;23.310;2023-04-01T03:57:06;93995.44;;;10.79;79.74
16451;BME280;12243;42.708;23.310;2023-04-01T03:59:34;93990.06;;;10.80;78.89
16451;BME280;12243;42.708;23.310;2023-04-01T04:02:01;93965.88;;;10.88;78.44
16451;BME280;12243;42.708;23.310;2023-04-01T04:04:30;93964.59;;;10.92;79.33
16451;BME280;12243;42.708;23.310;2023-04-01T04:06:57;93968.28;;;10.81;78.98
16451;BME280;12243;42.708;23.310;2023-04-01T04:09:25;93970.50;;;10.76;80.05
16451;BME280;12243;42.708;23.310;2023-04-01T04:11:53;93955.84;;;10.67;80.52
16451;BME280;12243;42.708;23.310;2023-04-01T04:14:20;93955.75;;;10.51;80.44
16451;BME280;12243;42.708;23.310;2023-04-01T04:16:47;93945.22;;;10.60;80.96
16451;BME280;12243;42.708;23.310;2023-04-01T04:19:15;93940.00;;;10.60;80.47
16451;BME280;12243;42.708;23.310;2023-04-01T04:21:44;93937.66;;;10.49;80.17
16451;BME280;12243;42.708;23.310;2023-04-01T04:24:11;93939.41;;;10.40;81.33
16451;BME280;12243;42.708;23.310;2023-04-01T04:27:01;93931.56;;;10.32;82.13
16451;BME280;12243;42.708;23.310;2023-04-01T04:29:28;93941.94;;;10.14;82.43
16451;BME280;12243;42.708;23.310;2023-04-01T04:31:55;93940.19;;;10.15;83.02
16451;BME280;12243;42.708;23.310;2023-04-01T04:34:22;93930.38;;;10.09;83.55
16451;BME280;12243;42.708;23.310;2023-04-01T04:36:51;93920.31;;;10.14;82.29
16451;BME280;12243;42.708;23.310;2023-04-01T04:39:20;93918.72;;;10.13;82.53
16451;BME280;12243;42.708;23.310;2023-04-01T04:41:47;93925.19;;;10.09;82.56
16451;BME280;12243;42.708;23.310;2023-04-01T04:44:14;93922.78;;;10.15;83.14
16451;BME280;12243;42.708;23.310;2023-04-01T04:46:42;93915.84;;;10.24;83.55
16451;BME280;12243;42.708;23.310;2023-04-01T04:49:13;93911.56;;;10.33;83.69
16451;BME280;12243;42.708;23.310;2023-04-01T04:51:41;93909.97;;;10.40;83.23
16451;BME280;12243;42.708;23.310;2023-04-01T04:54:10;93895.75;;;10.60;81.32
16451;BME280;12243;42.708;23.310;2023-04-01T04:56:58;93903.41;;;10.70;80.35
16451;BME280;12243;42.708;23.310;2023-04-01T04:59:27;93893.97;;;10.61;80.15
16451;BME280;12243;42.708;23.310;2023-04-01T05:02:05;93898.69;;;10.65;80.92
16451;BME280;12243;42.708;23.310;2023-04-01T05:04:34;93896.78;;;10.76;80.73
16451;BME280;12243;42.708;23.310;2023-04-01T05:07:02;93897.28;;;10.79;79.98
16451;BME280;12243;42.708;23.310;2023-04-01T05:09:32;93882.53;;;10.88;79.01
16451;BME280;12243;42.708;23.310;2023-04-01T05:11:59;93886.25;;;10.85;78.06
16451;BME280;12243;42.708;23.310;2023-04-01T05:14:34;93867.97;;;10.77;78.11
16451;BME280;12243;42.708;23.310;2023-04-01T05:17:09;93864.44;;;10.86;78.59
16451;BME280;12243;42.708;23.310;2023-04-01T05:19:36;93865.09;;;10.88;77.28
16451;BME280;12243;42.708;23.310;2023-04-01T05:22:03;93860.19;;;10.85;78.05
16451;BME280;12243;42.708;23.310;2023-04-01T05:24:33;93858.72;;;10.91;78.04
16451;BME280;12243;42.708;23.310;2023-04-01T05:27:00;93860.56;;;10.99;77.99
16451;BME280;12243;42.708;23.310;2023-04-01T05:29:28;93839.75;;;11.15;75.74
16451;BME280;12243;42.708;23.310;2023-04-01T05:32:03;93848.91;;;11.27;75.25
16451;BME280;12243;42.708;23.310;2023-04-01T05:34:30;93845.81;;;11.48;74.18
16451;BME280;12243;42.708;23.310;2023-04-01T05:36:57;93868.47;;;11.80;73.63
16451;BME280;12243;42.708;23.310;2023-04-01T05:39:24;93868.16;;;12.08;73.03
16451;BME280;12243;42.708;23.310;2023-04-01T05:41:52;93862.03;;;12.40;71.46
16451;BME280;12243;42.708;23.310;2023-04-01T05:44:19;93852.16;;;12.67;69.27
16451;BME280;12243;42.708;23.310;2023-04-01T05:47:09;93858.63;;;13.10;67.37
16451;BME280;12243;42.708;23.310;2023-04-01T05:49:36;93860.91;;;13.44;64.83
16451;BME280;12243;42.708;23.310;2023-04-01T05:52:04;93840.97;;;13.66;62.70
16451;BME280;12243;42.708;23.310;2023-04-01T05:54:34;93845.69;;;13.71;62.05
16451;BME280;12243;42.708;23.310;2023-04-01T05:57:02;93846.72;;;13.85;61.80
16451;BME280;12243;42.708;23.310;2023-04-01T05:59:30;93846.50;;;14.09;62.23
16451;BME280;12243;42.708;23.310;2023-04-01T06:01:58;93838.28;;;14.42;58.74
16451;BME280;12243;42.708;23.310;2023-04-01T06:04:25;93842.19;;;14.61;58.00
16451;BME280;12243;42.708;23.310;2023-04-01T06:06:56;93842.63;;;14.94;57.12
16451;BME280;12243;42.708;23.310;2023-04-01T06:09:26;93842.25;;;15.33;55.54
16451;BME280;12243;42.708;23.310;2023-04-01T06:12:23;93840.22;;;15.71;53.62
16451;BME280;12243;42.708;23.310;2023-04-01T06:15:03;93834.94;;;15.93;52.63
16451;BME280;12243;42.708;23.310;2023-04-01T06:17:48;93842.94;;;16.06;53.05
16451;BME280;12243;42.708;23.310;2023-04-01T06:20:25;93843.41;;;16.16;52.37
16451;BME280;12243;42.708;23.310;2023-04-01T06:23:21;93842.34;;;16.32;51.95
16451;BME280;12243;42.708;23.310;2023-04-01T06:26:03;93848.00;;;16.36;50.80
16451;BME280;12243;42.708;23.310;2023-04-01T06:29:00;93839.16;;;15.87;51.65
16451;BME280;12243;42.708;23.310;2023-04-01T06:31:43;93829.41;;;15.38;53.73
16451;BME280;12243;42.708;23.310;2023-04-01T06:34:39;93828.03;;;15.42;53.39
16451;BME280;12243;42.708;23.310;2023-04-01T06:37:44;93833.47;;;15.62;53.27
16451;BME280;12243;42.708;23.310;2023-04-01T06:40:25;93825.34;;;15.36;53.31
16451;BME280;12243;42.708;23.310;2023-04-01T06:43:09;93820.31;;;15.19;54.16
16451;BME280;12243;42.708;23.310;2023-04-01T06:46:04;93815.41;;;14.95;54.72
16451;BME280;12243;42.708;23.310;2023-04-01T06:49:11;93818.69;;;14.82;55.82
16451;BME280;12243;42.708;23.310;2023-04-01T06:52:11;93804.31;;;14.93;55.58
16451;BME280;12243;42.708;23.310;2023-04-01T06:55:15;93802.25;;;14.73;56.34
16451;BME280;12243;42.708;23.310;2023-04-01T06:58:15;93796.84;;;14.45;58.00
16451;BME280;12243;42.708;23.310;2023-04-01T07:00:48;93775.34;;;14.20;59.17
16451;BME280;12243;42.708;23.310;2023-04-01T07:03:21;93791.16;;;14.12;59.69
16451;BME280;12243;42.708;23.310;2023-04-01T07:05:48;93810.19;;;14.21;59.90
16451;BME280;12243;42.708;23.310;2023-04-01T07:08:18;93802.25;;;14.29;59.90
16451;BME280;12243;42.708;23.310;2023-04-01T07:10:50;93787.53;;;14.43;60.48
16451;BME280;12243;42.708;23.310;2023-04-01T07:13:54;93782.13;;;14.59;60.07
16451;BME280;12243;42.708;23.310;2023-04-01T07:16:27;93780.13;;;14.76;59.30
16451;BME280;12243;42.708;23.310;2023-04-01T07:19:02;93783.63;;;14.83;59.82
16451;BME280;12243;42.708;23.310;2023-04-01T07:21:47;93788.09;;;15.04;59.59
16451;BME280;12243;42.708;23.310;2023-04-01T07:24:26;93793.94;;;15.06;59.44
16451;BME280;12243;42.708;23.310;2023-04-01T07:27:09;93786.19;;;14.98;59.68
16451;BME280;12243;42.708;23.310;2023-04-01T07:29:38;93781.09;;;15.11;59.80
16451;BME280;12243;42.708;23.310;2023-04-01T07:32:32;93787.78;;;15.35;59.05
16451;BME280;12243;42.708;23.310;2023-04-01T07:35:19;93802.72;;;15.35;58.40
16451;BME280;12243;42.708;23.310;2023-04-01T07:38:00;93802.59;;;15.21;58.94
16451;BME280;12243;42.708;23.310;2023-04-01T07:40:37;93790.47;;;15.20;58.45
16451;BME280;12243;42.708;23.310;2023-04-01T07:43:18;93785.25;;;15.20;59.21
16451;BME280;12243;42.708;23.310;2023-04-01T07:46:11;93790.22;;;15.37;59.44
16451;BME280;12243;42.708;23.310;2023-04-01T07:48:49;93780.34;;;15.60;57.66
16451;BME280;12243;42.708;23.310;2023-04-01T07:51:22;93788.44;;;15.65;58.04
16451;BME280;12243;42.708;23.310;2023-04-01T07:53:58;93776.09;;;15.81;57.17
16451;BME280;12243;42.708;23.310;2023-04-01T07:56:31;93770.66;;;15.82;56.97
16451;BME280;12243;42.708;23.310;2023-04-01T07:59:07;93759.91;;;15.77;56.76
16451;BME280;12243;42.708;23.310;2023-04-01T08:02:04;93767.22;;;15.60;57.25
16451;BME280;12243;42.708;23.310;2023-04-01T08:04:52;93763.09;;;15.51;57.73
16451;BME280;12243;42.708;23.310;2023-04-01T08:07:26;93764.75;;;15.52;58.17
16451;BME280;12243;42.708;23.310;2023-04-01T08:10:24;93756.09;;;15.80;57.39
16451;BME280;12243;42.708;23.310;2023-04-01T08:13:20;93757.28;;;15.77;56.96
16451;BME280;12243;42.708;23.310;2023-04-01T08:16:17;93745.94;;;15.70;57.37
16451;BME280;12243;42.708;23.310;2023-04-01T08:18:58;93734.00;;;15.67;58.24
16451;BME280;12243;42.708;23.310;2023-04-01T08:21:30;93726.06;;;15.89;56.92
16451;BME280;12243;42.708;23.310;2023-04-01T08:24:11;93713.84;;;15.75;56.87
16451;BME280;12243;42.708;23.310;2023-04-01T08:26:43;93722.41;;;15.83;57.21
16451;BME280;12243;42.708;23.310;2023-04-01T08:29:16;93733.84;;;16.10;57.50
16451;BME280;12243;42.708;23.310;2023-04-01T08:31:51;93720.69;;;16.45;56.36
16451;BME280;12243;42.708;23.310;2023-04-01T08:34:25;93706.50;;;16.81;54.71
16451;BME280;12243;42.708;23.310;2023-04-01T08:36:59;93695.59;;;16.97;54.60
16451;BME280;12243;42.708;23.310;2023-04-01T08:39:33;93691.59;;;17.14;53.65
16451;BME280;12243;42.708;23.310;2023-04-01T08:42:17;93683.94;;;17.33;52.82
16451;BME280;12243;42.708;23.310;2023-04-01T08:45:05;93678.22;;;17.62;52.16
16451;BME280;12243;42.708;23.310;2023-04-01T08:47:45;93660.38;;;17.98;50.91
16451;BME280;12243;42.708;23.310;2023-04-01T08:50:35;93658.06;;;18.28;49.84
16451;BME280;12243;42.708;23.310;2023-04-01T08:53:21;93647.72;;;18.71;48.38
16451;BME280;12243;42.708;23.310;2023-04-01T08:56:06;93649.38;;;18.72;48.29
16451;BME280;12243;42.708;23.310;2023-04-01T08:58:55;93651.84;;;19.24;47.76
16451;BME280;12243;42.708;23.310;2023-04-01T09:01:47;93655.88;;;20.02;44.94
16451;BME280;12243;42.708;23.310;2023-04-01T09:07:41;93659.78;;;20.84;42.31
16451;BME280;12243;42.708;23.310;2023-04-01T09:10:45;93656.31;;;20.84;39.85
16451;BME280;12243;42.708;23.310;2023-04-01T09:13:58;93646.94;;;20.69;40.14
16451;BME280;12243;42.708;23.310;2023-04-01T09:16:58;93651.88;;;19.74;41.65
16451;BME280;12243;42.708;23.310;2023-04-01T09:19:43;93652.56;;;19.63;40.61
16451;BME280;12243;42.708;23.310;2023-04-01T09:22:37;93649.00;;;19.75;40.81
16451;BME280;12243;42.708;23.310;2023-04-01T09:28:10;93638.06;;;19.72;41.08
16451;BME280;12243;42.708;23.310;2023-04-01T09:31:08;93630.63;;;19.37;41.54
16451;BME280;12243;42.708;23.310;2023-04-01T09:37:17;93623.94;;;19.10;42.22
16451;BME280;12243;42.708;23.310;2023-04-01T09:39:54;93615.31;;;19.21;41.80
16451;BME280;12243;42.708;23.310;2023-04-01T09:42:45;93605.91;;;19.32;41.57
16451;BME280;12243;42.708;23.310;2023-04-01T09:45:37;93610.09;;;19.39;41.59
16451;BME280;12243;42.708;23.310;2023-04-01T09:48:22;93593.97;;;19.47;41.08
16451;BME280;12243;42.708;23.310;2023-04-01T09:51:02;93588.03;;;19.52;40.84
16451;BME280;12243;42.708;23.310;2023-04-01T09:54:17;93591.63;;;19.39;41.61
16451;BME280;12243;42.708;23.310;2023-04-01T10:00:35;93567.88;;;19.58;40.38
16451;BME280;12243;42.708;23.310;2023-04-01T10:10:15;93558.56;;;19.55;40.86
16451;BME280;12243;42.708;23.310;2023-04-01T10:13:18;93563.63;;;19.57;41.13
16451;BME280;12243;42.708;23.310;2023-04-01T10:16:25;93544.72;;;19.60;40.03
16451;BME280;12243;42.708;23.310;2023-04-01T10:19:20;93549.56;;;19.63;39.92
16451;BME280;12243;42.708;23.310;2023-04-01T10:22:04;93543.97;;;19.52;39.90
16451;BME280;12243;42.708;23.310;2023-04-01T10:28:04;93532.06;;;19.62;39.43
16451;BME280;12243;42.708;23.310;2023-04-01T10:31:29;93528.13;;;19.52;39.85
16451;BME280;12243;42.708;23.310;2023-04-01T10:34:29;93533.84;;;19.49;39.59
16451;BME280;12243;42.708;23.310;2023-04-01T10:37:11;93521.81;;;19.35;40.01
16451;BME280;12243;42.708;23.310;2023-04-01T10:43:46;93525.50;;;18.84;43.78
16451;BME280;12243;42.708;23.310;2023-04-01T10:46:44;93519.97;;;18.61;44.25
16451;BME280;12243;42.708;23.310;2023-04-01T10:56:42;93495.31;;;17.72;45.91
16451;BME280;12243;42.708;23.310;2023-04-01T11:00:01;93495.38;;;17.58;46.20
16451;BME280;12243;42.708;23.310;2023-04-01T11:03:19;93485.63;;;17.66;46.05
16451;BME280;12243;42.708;23.310;2023-04-01T11:13:10;93486.50;;;17.46;46.72
16451;BME280;12243;42.708;23.310;2023-04-01T11:19:35;93485.28;;;17.42;46.95
16451;BME280;12243;42.708;23.310;2023-04-01T11:22:38;93484.53;;;17.28;46.17
16451;BME280;12243;42.708;23.310;2023-04-01T11:25:33;93492.03;;;17.25;46.71
16451;BME280;12243;42.708;23.310;2023-04-01T11:28:50;93528.66;;;17.33;47.21
16451;BME280;12243;42.708;23.310;2023-04-01T11:31:29;93537.34;;;17.33;47.59
16451;BME280;12243;42.708;23.310;2023-04-01T11:34:07;93575.63;;;17.23;49.89
16451;BME280;12243;42.708;23.310;2023-04-01T11:36:52;93607.41;;;17.14;52.44
16451;BME280;12243;42.708;23.310;2023-04-01T11:39:34;93600.25;;;16.68;55.24
16451;BME280;12243;42.708;23.310;2023-04-01T11:42:32;93623.94;;;16.07;58.99
16451;BME280;12243;42.708;23.310;2023-04-01T11:45:32;93682.03;;;15.07;67.67
16451;BME280;12243;42.708;23.310;2023-04-01T11:48:27;93689.41;;;13.94;78.31
16451;BME280;12243;42.708;23.310;2023-04-01T11:51:15;93710.34;;;13.04;85.70
16451;BME280;12243;42.708;23.310;2023-04-01T11:53:54;93731.06;;;12.28;91.40
16451;BME280;12243;42.708;23.310;2023-04-01T11:56:44;93736.47;;;12.19;95.47
16451;BME280;12243;42.708;23.310;2023-04-01T11:59:42;93746.78;;;12.12;97.35
16451;BME280;12243;42.708;23.310;2023-04-01T12:02:14;93747.28;;;12.07;97.42
16451;BME280;12243;42.708;23.310;2023-04-01T12:04:58;93764.06;;;12.13;98.27
16451;BME280;12243;42.708;23.310;2023-04-01T12:10:26;93747.91;;;12.18;99.81
16451;BME280;12243;42.708;23.310;2023-04-01T12:12:59;93750.31;;;12.27;100.00
16451;BME280;12243;42.708;23.310;2023-04-01T12:15:36;93738.56;;;12.23;100.00
16451;BME280;12243;42.708;23.310;2023-04-01T12:18:16;93729.16;;;12.14;100.00
16451;BME280;12243;42.708;23.310;2023-04-01T12:20:50;93722.28;;;12.21;100.00
16451;BME280;12243;42.708;23.310;2023-04-01T12:23:46;93732.25;;;12.49;100.00
16451;BME280;12243;42.708;23.310;2023-04-01T12:26:30;93742.91;;;12.70;100.00
16451;BME280;12243;42.708;23.310;2023-04-01T12:29:09;93740.28;;;13.01;100.00
16451;BME280;12243;42.708;23.310;2023-04-01T12:31:50;93747.56;;;13.06;100.00
16451;BME280;12243;42.708;23.310;2023-04-01T12:34:38;93769.63;;;12.80;100.00
16451;BME280;12243;42.708;23.310;2023-04-01T12:37:12;93767.84;;;12.50;100.00
16451;BME280;12243;42.708;23.310;2023-04-01T12:40:17;93763.56;;;12.18;100.00
16451;BME280;12243;42.708;23.310;2023-04-01T12:42:59;93753.69;;;11.97;100.00
16451;BME280;12243;42.708;23.310;2023-04-01T12:45:32;93742.63;;;11.86;100.00
16451;BME280;12243;42.708;23.310;2023-04-01T12:48:32;93747.22;;;11.68;100.00
16451;BME280;12243;42.708;23.310;2023-04-01T12:51:31;93741.19;;;11.59;100.00
16451;BME280;12243;42.708;23.310;2023-04-01T12:54:36;93730.94;;;11.58;100.00
16451;BME280;12243;42.708;23.310;2023-04-01T12:57:21;93729.44;;;11.63;100.00
16451;BME280;12243;42.708;23.310;2023-04-01T13:00:11;93705.81;;;11.65;100.00
16451;BME280;12243;42.708;23.310;2023-04-01T13:02:52;93699.56;;;11.74;100.00
16451;BME280;12243;42.708;23.310;2023-04-01T13:08:32;93699.28;;;12.16;100.00
16451;BME280;12243;42.708;23.310;2023-04-01T13:11:12;93686.34;;;12.23;100.00
16451;BME280;12243;42.708;23.310;2023-04-01T13:14:05;93681.34;;;12.45;100.00
16451;BME280;12243;42.708;23.310;2023-04-01T13:16:41;93675.09;;;12.54;100.00
16451;BME280;12243;42.708;23.310;2023-04-01T13:19:17;93677.56;;;12.55;100.00
16451;BME280;12243;42.708;23.310;2023-04-01T13:21:54;93672.66;;;12.75;100.00
16451;BME280;12243;42.708;23.310;2023-04-01T13:24:39;93666.06;;;12.87;100.00
16451;BME280;12243;42.708;23.310;2023-04-01T13:27:14;93671.69;;;13.14;100.00
16451;BME280;12243;42.708;23.310;2023-04-01T13:29:48;93655.91;;;13.30;100.00
16451;BME280;12243;42.708;23.310;2023-04-01T13:32:27;93639.72;;;13.50;99.25
16451;BME280;12243;42.708;23.310;2023-04-01T13:35:17;93644.56;;;13.82;96.33
16451;BME280;12243;42.708;23.310;2023-04-01T13:38:12;93635.50;;;14.36;93.69
16451;BME280;12243;42.708;23.310;2023-04-01T13:40:51;93623.03;;;14.96;89.54
16451;BME280;12243;42.708;23.310;2023-04-01T13:43:25;93621.13;;;15.39;82.95
16451;BME280;12243;42.708;23.310;2023-04-01T13:46:37;93606.88;;;15.83;79.91
16451;BME280;12243;42.708;23.310;2023-04-01T13:52:35;93605.91;;;16.59;72.37
16451;BME280;12243;42.708;23.310;2023-04-01T13:55:26;93598.63;;;16.54;69.86
16451;BME280;12243;42.708;23.310;2023-04-01T13:58:13;93595.22;;;16.74;71.65
16451;BME280;12243;42.708;23.310;2023-04-01T14:00:52;93591.00;;;16.79;67.31
16451;BME280;12243;42.708;23.310;2023-04-01T14:03:30;93594.47;;;17.06;66.68
16451;BME280;12243;42.708;23.310;2023-04-01T14:06:13;93589.59;;;17.30;63.86
16451;BME280;12243;42.708;23.310;2023-04-01T14:09:08;93580.09;;;17.16;60.35
16451;BME280;12243;42.708;23.310;2023-04-01T14:11:45;93584.97;;;17.05;60.02
16451;BME280;12243;42.708;23.310;2023-04-01T14:14:23;93574.22;;;17.13;60.99
16451;BME280;12243;42.708;23.310;2023-04-01T14:16:58;93580.44;;;17.39;60.21
16451;BME280;12243;42.708;23.310;2023-04-01T14:19:41;93573.97;;;17.55;58.25
16451;BME280;12243;42.708;23.310;2023-04-01T14:22:20;93570.28;;;17.76;62.22
16451;BME280;12243;42.708;23.310;2023-04-01T14:25:16;93558.94;;;17.82;68.19
16451;BME280;12243;42.708;23.310;2023-04-01T14:27:57;93550.72;;;17.32;72.07
16451;BME280;12243;42.708;23.310;2023-04-01T14:30:48;93542.47;;;16.95;73.34
16451;BME280;12243;42.708;23.310;2023-04-01T14:33:26;93544.47;;;16.86;73.77
16451;BME280;12243;42.708;23.310;2023-04-01T14:36:19;93537.56;;;16.65;75.47
16451;BME280;12243;42.708;23.310;2023-04-01T14:39:01;93541.63;;;16.68;76.34
16451;BME280;12243;42.708;23.310;2023-04-01T14:41:46;93536.38;;;16.68;73.87
16451;BME280;12243;42.708;23.310;2023-04-01T14:44:24;93535.31;;;16.49;74.72
16451;BME280;12243;42.708;23.310;2023-04-01T14:47:22;93530.25;;;16.34;74.69
16451;BME280;12243;42.708;23.310;2023-04-01T14:49:53;93535.91;;;16.25;75.09
16451;BME280;12243;42.708;23.310;2023-04-01T14:52:27;93543.59;;;16.33;74.80